Time;durP1;ratioP1;P1;durP2;ratioP2;P2;SDS_P1;SDS_P2;PMS_P1;PMS_P2;Temp;Humidity;BMP_temperature;BMP_pressure;BME280_temperature;BME280_humidity;BME280_pressure;Samples;Min_cycle;Max_cycle;Signal;HPM_P1;HPM_P2
2021/06/17 00:00:43;;;;;;;6.30;4.70;;;;;;;17.82;87.06;99733.50;1727557;80;21117;-79
2021/06/17 00:03:11;;;;;;;9.37;5.13;;;;;;;17.81;87.12;99731.85;1719656;82;21286;-81
2021/06/17 00:05:41;;;;;;;9.20;5.03;;;;;;;17.83;86.97;99726.03;1749012;80;21837;-80
2021/06/17 00:08:09;;;;;;;8.13;5.00;;;;;;;17.83;86.65;99734.33;1736452;82;21170;-81
2021/06/17 00:10:42;;;;;;;7.15;4.80;;;;;;;17.81;86.66;99733.23;1743693;80;21137;-79
2021/06/17 00:13:14;;;;;;;7.45;4.92;;;;;;;17.81;86.49;99726.31;1725169;82;21164;-78
2021/06/17 00:15:44;;;;;;;9.45;4.83;;;;;;;17.84;86.38;99720.73;1744928;80;21576;-79
2021/06/17 00:18:12;;;;;;;8.85;4.78;;;;;;;17.85;86.02;99710.75;1754943;81;22147;-79
2021/06/17 00:20:41;;;;;;;7.20;4.80;;;;;;;17.86;85.61;99710.98;1743724;80;21199;-80
2021/06/17 00:23:09;;;;;;;8.13;4.80;;;;;;;17.88;85.31;99704.59;1725365;82;21203;-78
2021/06/17 00:25:37;;;;;;;7.87;4.37;;;;;;;17.90;85.23;99705.66;1738865;80;21180;-79
2021/06/17 00:28:05;;;;;;;7.42;4.53;;;;;;;17.89;85.06;99700.67;1753664;82;21129;-78
2021/06/17 00:30:33;;;;;;;10.15;4.83;;;;;;;17.87;84.91;99700.17;1738348;80;21669;-78
2021/06/17 00:33:01;;;;;;;6.85;4.45;;;;;;;17.87;84.72;99704.89;1725369;82;21164;-79
2021/06/17 00:35:29;;;;;;;7.17;4.60;;;;;;;17.88;84.66;99706.54;1750846;80;21749;-81
2021/06/17 00:37:58;;;;;;;9.98;4.60;;;;;;;17.86;84.73;99710.98;1726933;80;21715;-80
2021/06/17 00:40:26;;;;;;;7.60;4.40;;;;;;;17.86;84.68;99713.75;1749976;80;21576;-78
2021/06/17 00:42:54;;;;;;;8.35;4.85;;;;;;;17.85;84.77;99710.75;1754546;80;21186;-79
2021/06/17 00:45:25;;;;;;;7.35;4.10;;;;;;;17.82;84.97;99711.36;1740066;80;21175;-78
2021/06/17 00:47:53;;;;;;;8.88;5.03;;;;;;;17.81;84.97;99723.55;1729653;80;21664;-78
2021/06/17 00:50:23;;;;;;;8.60;5.33;;;;;;;17.80;85.13;99723.31;1738425;80;21536;-79
2021/06/17 00:52:51;;;;;;;11.00;5.20;;;;;;;17.78;85.21;99726.95;1699218;83;21287;-78
2021/06/17 00:55:19;;;;;;;9.48;4.90;;;;;;;17.74;85.35;99725.92;1741558;82;21116;-78
2021/06/17 00:57:47;;;;;;;9.10;4.50;;;;;;;17.72;85.60;99739.25;1726488;80;21162;-79
2021/06/17 01:00:16;;;;;;;6.65;4.85;;;;;;;17.69;85.73;99734.33;1737350;82;21243;-80
2021/06/17 01:02:45;;;;;;;9.38;4.90;;;;;;;17.64;85.99;99735.81;1678167;83;21167;-80
2021/06/17 01:05:18;;;;;;;8.20;4.67;;;;;;;17.60;86.18;99740.34;1733089;82;21572;-80
2021/06/17 01:08:16;;;;;;;8.10;4.90;;;;;;;17.60;86.36;99738.95;1737281;80;21251;-74
2021/06/17 01:11:15;;;;;;;10.15;5.20;;;;;;;17.59;86.57;99741.45;1753165;80;21611;-78
2021/06/17 01:13:58;;;;;;;10.32;5.00;;;;;;;17.57;86.65;99740.94;1664350;83;21117;-80
2021/06/17 01:16:47;;;;;;;7.60;5.25;;;;;;;17.57;86.48;99747.30;1726716;82;21145;-79
2021/06/17 01:19:33;;;;;;;9.45;5.50;;;;;;;17.58;86.60;99762.77;1729351;80;21171;-79
2021/06/17 01:22:33;;;;;;;10.20;5.37;;;;;;;17.58;86.46;99771.06;1733913;81;21772;-82
2021/06/17 01:25:20;;;;;;;9.33;5.17;;;;;;;17.59;86.63;99787.11;1745766;80;21168;-82
2021/06/17 01:28:12;;;;;;;8.18;5.20;;;;;;;17.57;86.70;99787.98;1755054;81;21605;-80
2021/06/17 01:31:09;;;;;;;8.50;4.97;;;;;;;17.55;86.69;99799.94;1724149;80;21160;-81
2021/06/17 01:33:40;;;;;;;7.40;5.05;;;;;;;17.53;86.51;99800.22;1699078;82;21144;-79
2021/06/17 01:36:15;;;;;;;8.85;5.60;;;;;;;17.50;86.63;99802.20;1740316;80;21606;-84
2021/06/17 01:38:48;;;;;;;9.60;5.45;;;;;;;17.43;87.06;99806.50;1729525;82;21599;-85
2021/06/17 01:41:19;;;;;;;10.40;5.25;;;;;;;17.36;86.95;99804.66;1752109;80;21148;-83
2021/06/17 01:43:47;;;;;;;9.93;4.92;;;;;;;17.36;87.00;99810.20;1722676;82;21153;-83
2021/06/17 01:46:15;;;;;;;9.80;6.15;;;;;;;17.35;86.99;99817.70;1745406;80;21183;-83
2021/06/17 01:48:44;;;;;;;10.05;5.58;;;;;;;17.35;87.06;99823.79;1749413;80;21125;-77
2021/06/17 01:51:12;;;;;;;8.53;5.50;;;;;;;17.31;87.04;99829.09;1684783;82;21163;-76
2021/06/17 01:53:40;;;;;;;12.15;5.50;;;;;;;17.25;87.13;99826.73;1692870;81;21176;-78
2021/06/17 01:56:08;;;;;;;9.38;5.75;;;;;;;17.24;87.28;99826.45;1686860;83;21169;-77
2021/06/17 01:58:36;;;;;;;10.18;4.92;;;;;;;17.22;87.26;99822.62;1712362;82;21594;-77
2021/06/17 02:01:04;;;;;;;7.20;4.60;;;;;;;17.24;87.11;99818.98;1722245;81;21261;-75
2021/06/17 02:03:32;;;;;;;;;;;;;;;17.25;86.66;99814.28;1695192;82;21164;-78
2021/06/17 02:06:00;;;;;;;9.63;4.55;;;;;;;17.28;86.98;99810.33;1725316;81;20290;-76
2021/06/17 02:08:28;;;;;;;9.80;5.10;;;;;;;17.31;86.74;99813.05;1724879;83;21132;-77
2021/06/17 02:10:56;;;;;;;8.85;4.55;;;;;;;17.33;86.35;99817.16;1725666;80;21279;-79
2021/06/17 02:13:24;;;;;;;9.63;4.97;;;;;;;17.35;86.09;99811.34;1756009;81;21633;-80
2021/06/17 02:15:52;;;;;;;8.93;4.85;;;;;;;17.38;85.98;99812.91;1725550;82;21188;-77
2021/06/17 02:18:24;;;;;;;9.43;4.85;;;;;;;17.42;85.71;99804.84;1724807;80;21287;-79
2021/06/17 02:20:54;;;;;;;8.38;4.80;;;;;;;17.44;85.83;99803.97;1725193;83;21196;-76
2021/06/17 02:23:23;;;;;;;8.90;4.55;;;;;;;17.45;85.42;99804.23;1725376;80;21624;-77
2021/06/17 02:25:52;;;;;;;;;;;;;;;17.47;85.27;99811.11;1728995;82;21140;-78
2021/06/17 02:28:21;;;;;;;7.85;4.70;;;;;;;17.48;85.35;99813.32;1697048;83;20235;-78
2021/06/17 02:30:49;;;;;;;7.40;4.47;;;;;;;17.48;85.58;99806.41;1725695;82;21172;-76
2021/06/17 02:33:18;;;;;;;8.48;4.65;;;;;;;17.50;85.34;99812.45;1732592;80;21674;-77
2021/06/17 02:35:46;;;;;;;9.05;4.95;;;;;;;17.51;85.18;99801.62;1737276;80;21164;-77
2021/06/17 02:38:15;;;;;;;8.30;4.25;;;;;;;17.54;85.25;99807.97;1720155;82;21133;-77
2021/06/17 02:40:44;;;;;;;;;;;;;;;17.55;84.98;99804.91;1740944;82;21584;-78
2021/06/17 02:43:16;;;;;;;8.30;4.28;;;;;;;17.58;84.98;99803.48;1747921;80;20548;-81
2021/06/17 02:45:43;;;;;;;7.75;4.45;;;;;;;17.60;84.94;99805.38;1738222;82;21140;-79
2021/06/17 02:48:11;;;;;;;8.85;4.95;;;;;;;17.64;84.77;99802.23;1738315;80;21575;-81
2021/06/17 02:50:40;;;;;;;10.88;5.10;;;;;;;17.68;84.40;99801.91;1738251;80;21187;-80
2021/06/17 02:53:08;;;;;;;8.23;4.83;;;;;;;17.72;84.08;99805.69;1739021;82;21120;-77
2021/06/17 02:55:36;;;;;;;7.40;4.58;;;;;;;17.73;83.85;99798.45;1738899;80;21156;-76
2021/06/17 02:58:29;;;;;;;7.80;4.80;;;;;;;17.76;83.89;99808.09;1741476;82;21157;-78
2021/06/17 03:01:48;;;;;;;8.28;4.30;;;;;;;17.81;84.25;99809.38;1753446;80;21541;-80
2021/06/17 03:04:25;;;;;;;7.45;4.47;;;;;;;17.85;83.66;99803.49;1733448;80;21120;-78
2021/06/17 03:06:53;;;;;;;8.28;4.70;;;;;;;17.92;83.30;99801.13;1752250;80;21160;-78
2021/06/17 03:09:40;;;;;;;9.80;4.97;;;;;;;17.99;83.23;99806.24;1747577;80;22699;-76
2021/06/17 03:12:08;;;;;;;11.53;5.10;;;;;;;18.01;82.73;99810.34;1711847;83;21663;-78
2021/06/17 03:14:38;;;;;;;8.13;5.00;;;;;;;18.07;82.73;99806.91;1741038;80;21885;-76
2021/06/17 03:17:06;;;;;;;11.65;4.58;;;;;;;18.11;82.89;99809.34;1751204;81;21564;-79
2021/06/17 03:19:34;;;;;;;13.43;4.80;;;;;;;18.14;82.67;99809.52;1683520;80;21154;-79
2021/06/17 03:22:07;;;;;;;8.40;4.42;;;;;;;18.19;82.70;99811.39;1741117;80;21483;-77
2021/06/17 03:24:39;;;;;;;9.58;4.92;;;;;;;18.23;82.47;99816.55;1749850;80;21169;-79
2021/06/17 03:27:08;;;;;;;6.70;4.50;;;;;;;18.27;82.21;99819.78;1729906;80;21144;-77
2021/06/17 03:29:47;;;;;;;7.47;4.97;;;;;;;18.30;82.30;99823.32;1740112;82;21190;-80
2021/06/17 03:32:15;;;;;;;;;;;;;;;18.33;82.13;99825.48;1706345;82;21125;-79
2021/06/17 03:34:44;;;;;;;7.72;4.78;;;;;;;18.37;82.14;99829.25;1739297;82;20614;-75
2021/06/17 03:37:14;;;;;;;8.58;4.80;;;;;;;18.40;82.17;99833.36;1745709;80;21200;-76
2021/06/17 03:39:43;;;;;;;8.88;5.05;;;;;;;18.45;81.91;99842.95;1744572;82;21199;-79
2021/06/17 03:42:11;;;;;;;7.83;4.70;;;;;;;18.50;82.04;99844.25;1727119;82;21708;-76
2021/06/17 03:44:40;;;;;;;9.13;4.60;;;;;;;18.53;81.82;99847.80;1747615;80;21183;-78
2021/06/17 03:47:07;;;;;;;;;;;;;;;18.59;81.44;99854.05;1716646;82;21639;-73
2021/06/17 03:49:36;;;;;;;19.98;5.00;;;;;;;18.63;81.58;99853.11;1747203;81;20533;-73
2021/06/17 03:52:04;;;;;;;9.00;4.83;;;;;;;18.67;81.40;99856.09;1751065;80;21701;-75
2021/06/17 03:54:32;;;;;;;9.03;4.95;;;;;;;18.72;81.41;99872.62;1746736;82;21156;-80
2021/06/17 03:57:01;;;;;;;;;;;;;;;18.77;81.63;99871.11;1716280;81;21322;-73
2021/06/17 03:59:43;;;;;;;9.85;4.90;;;;;;;18.80;81.35;99873.23;1708988;81;20573;-79
2021/06/17 04:02:11;;;;;;;7.83;5.37;;;;;;;18.85;80.95;99877.28;1717702;81;21183;-74
2021/06/17 04:04:40;;;;;;;7.97;5.25;;;;;;;18.89;81.06;99870.00;1700299;83;21672;-72
2021/06/17 04:07:12;;;;;;;9.08;5.67;;;;;;;18.95;81.25;99868.17;1725646;83;21145;-72
2021/06/17 04:09:42;;;;;;;11.28;5.92;;;;;;;18.98;80.99;99875.05;1731858;80;21115;-78
2021/06/17 04:12:13;;;;;;;13.30;6.20;;;;;;;19.02;80.68;99878.85;1712682;82;21167;-72
2021/06/17 04:14:43;;;;;;;10.88;5.42;;;;;;;19.03;80.76;99868.81;1736564;80;21161;-74
2021/06/17 04:17:16;;;;;;;9.55;5.72;;;;;;;19.06;80.63;99868.75;1725291;82;21117;-72
2021/06/17 04:19:43;;;;;;;15.35;5.55;;;;;;;19.09;80.76;99865.36;1741317;80;21178;-79
2021/06/17 04:22:12;;;;;;;13.72;6.00;;;;;;;19.09;80.94;99855.65;1755839;82;21172;-72
2021/06/17 04:24:54;;;;;;;9.73;5.67;;;;;;;19.11;80.87;99858.09;1741751;80;21683;-77
2021/06/17 04:27:22;;;;;;;9.90;5.55;;;;;;;19.10;80.86;99842.02;1736539;82;21176;-72
2021/06/17 04:29:51;;;;;;;12.65;6.50;;;;;;;19.13;80.97;99840.56;1741668;80;21304;-73
2021/06/17 04:32:19;;;;;;;9.28;5.60;;;;;;;19.13;81.11;99834.45;1737328;82;21149;-75
2021/06/17 04:34:50;;;;;;;;;;;;;;;19.14;81.32;99827.78;1754492;80;21634;-80
2021/06/17 04:37:23;;;;;;;10.75;5.50;;;;;;;19.17;81.67;99826.33;1746511;82;20183;-79
2021/06/17 04:39:53;;;;;;;13.78;5.90;;;;;;;19.17;81.64;99829.94;1740791;80;21157;-75
2021/06/17 04:42:21;;;;;;;9.68;6.08;;;;;;;19.21;81.78;99829.54;1703888;82;21197;-76
2021/06/17 04:44:49;;;;;;;10.32;6.55;;;;;;;19.24;81.48;99825.31;1742422;80;21149;-80
2021/06/17 04:47:17;;;;;;;10.75;5.50;;;;;;;19.29;81.80;99819.64;1725607;81;21149;-77
2021/06/17 04:49:45;;;;;;;11.38;5.70;;;;;;;19.34;81.56;99829.22;1731850;80;21187;-78
2021/06/17 04:52:19;;;;;;;10.40;6.12;;;;;;;19.42;81.60;99825.72;1743507;82;21156;-79
2021/06/17 04:54:47;;;;;;;12.00;6.40;;;;;;;19.50;81.53;99836.06;1729964;81;21187;-79
2021/06/17 04:57:15;;;;;;;;;;;;;;;19.59;81.14;99836.91;1750308;80;21145;-79
2021/06/17 04:59:43;;;;;;;9.80;5.43;;;;;;;19.70;80.87;99843.84;1744589;82;20198;-79
2021/06/17 05:02:11;;;;;;;9.35;5.53;;;;;;;19.79;79.98;99849.43;1745691;80;21163;-78
2021/06/17 05:04:39;;;;;;;8.78;5.47;;;;;;;19.89;79.80;99845.81;1673139;84;21154;-79
2021/06/17 05:12:30;;;;;;;12.47;5.20;;;;;;;20.21;78.81;99864.09;1729756;80;21156;-76
2021/06/17 05:14:59;;;;;;;9.73;5.62;;;;;;;20.31;78.75;99862.45;1730464;82;21611;-77
2021/06/17 05:17:26;;;;;;;11.75;5.28;;;;;;;20.42;77.68;99870.72;1737219;80;21276;-76
2021/06/17 05:19:54;;;;;;;9.30;4.65;;;;;;;20.51;76.96;99872.97;1745384;80;21140;-78
2021/06/17 05:22:23;;;;;;;10.05;5.50;;;;;;;20.61;76.65;99885.18;1668036;83;21159;-76
2021/06/17 05:24:52;;;;;;;10.15;4.83;;;;;;;20.72;75.95;99885.70;1733131;82;21599;-78
2021/06/17 05:27:20;;;;;;;9.05;4.80;;;;;;;20.79;75.33;99890.20;1732273;80;21156;-79
2021/06/17 05:29:48;;;;;;;10.35;5.05;;;;;;;20.87;74.92;99904.11;1732500;82;21152;-76
2021/06/17 05:32:16;;;;;;;10.18;5.00;;;;;;;20.96;74.69;99898.57;1738658;80;21120;-76
2021/06/17 05:34:43;;;;;;;8.60;4.65;;;;;;;21.05;74.51;99907.73;1738661;82;21165;-79
2021/06/17 05:37:11;;;;;;;12.00;4.87;;;;;;;21.14;74.26;99914.73;1725589;82;21117;-76
2021/06/17 05:39:40;;;;;;;8.93;5.00;;;;;;;21.25;73.69;99920.23;1731592;80;21155;-79
2021/06/17 05:42:08;;;;;;;11.90;4.55;;;;;;;21.34;74.19;99921.05;1713306;82;21148;-80
2021/06/17 05:44:37;;;;;;;9.55;4.70;;;;;;;21.43;72.00;99921.85;1733951;80;21160;-78
2021/06/17 05:47:05;;;;;;;12.37;4.95;;;;;;;21.51;71.32;99924.64;1730180;82;21293;-79
2021/06/17 05:49:33;;;;;;;8.75;4.53;;;;;;;21.60;71.20;99926.61;1722335;81;21116;-80
2021/06/17 05:52:01;;;;;;;12.28;4.30;;;;;;;21.67;69.99;99927.75;1756150;81;21561;-78
2021/06/17 05:54:29;;;;;;;11.97;4.80;;;;;;;21.76;69.77;99934.11;1738368;80;21211;-75
2021/06/17 05:56:56;;;;;;;14.35;4.25;;;;;;;21.85;69.85;99941.93;1745130;82;21132;-75
2021/06/17 05:59:25;;;;;;;9.33;4.58;;;;;;;21.91;68.95;99941.98;1742311;80;21679;-75
2021/06/17 06:01:53;;;;;;;8.88;4.45;;;;;;;22.00;69.31;99946.16;1725828;82;21119;-73
2021/06/17 06:04:20;;;;;;;9.10;4.85;;;;;;;22.08;68.88;99952.28;1734168;80;21116;-80
2021/06/17 06:06:50;;;;;;;10.70;4.85;;;;;;;22.18;68.36;99956.68;1740008;82;21243;-79
2021/06/17 06:09:19;;;;;;;9.55;3.92;;;;;;;22.24;69.59;99958.15;1737635;80;21168;-80
2021/06/17 06:11:47;;;;;;;7.17;4.42;;;;;;;22.30;68.14;99959.59;1743690;82;21544;-74
2021/06/17 06:14:15;;;;;;;10.25;4.42;;;;;;;22.35;68.33;99963.02;1739833;82;21137;-73
2021/06/17 06:16:44;;;;;;;8.08;4.28;;;;;;;22.42;67.96;99969.46;1714108;81;21183;-79
2021/06/17 06:19:12;;;;;;;16.00;4.75;;;;;;;22.50;67.73;99970.84;1739773;82;21132;-78
2021/06/17 06:21:40;;;;;;;9.68;4.35;;;;;;;22.57;67.72;99975.31;1741342;80;21246;-80
2021/06/17 06:24:08;;;;;;;12.28;4.90;;;;;;;22.62;67.80;99968.18;1735404;82;21283;-74
2021/06/17 06:26:36;;;;;;;11.33;4.40;;;;;;;22.69;68.18;99971.86;1729427;80;21205;-81
2021/06/17 06:29:04;;;;;;;9.55;4.65;;;;;;;22.77;67.17;99973.77;1713209;82;21150;-79
2021/06/17 06:31:32;;;;;;;7.28;4.83;;;;;;;22.81;66.63;99975.31;1725262;80;21170;-74
2021/06/17 06:34:00;;;;;;;7.40;4.47;;;;;;;22.87;66.70;99969.20;1727799;82;21117;-73
2021/06/17 06:36:28;;;;;;;9.48;4.55;;;;;;;22.92;66.66;99966.21;1732163;80;21167;-74
2021/06/17 06:38:56;;;;;;;9.78;4.33;;;;;;;22.99;66.93;99970.71;1730966;80;21560;-72
2021/06/17 06:41:24;;;;;;;11.55;4.80;;;;;;;23.05;66.38;99970.73;1738680;80;21535;-73
2021/06/17 06:43:52;;;;;;;9.70;4.78;;;;;;;23.12;67.10;99971.01;1735525;81;21192;-73
2021/06/17 06:46:19;;;;;;;10.95;4.87;;;;;;;23.20;66.54;99968.74;1744708;80;21205;-81
2021/06/17 06:48:48;;;;;;;9.98;5.35;;;;;;;23.26;67.36;99972.98;1732238;82;21172;-82
2021/06/17 06:51:16;;;;;;;8.53;5.00;;;;;;;23.32;67.03;99975.00;1729975;80;21274;-74
2021/06/17 06:53:43;;;;;;;9.35;5.08;;;;;;;23.39;67.08;99972.51;1737097;80;21173;-83
2021/06/17 06:56:11;;;;;;;9.10;5.17;;;;;;;23.46;67.23;99987.31;1725490;82;21113;-71
2021/06/17 06:58:41;;;;;;;11.10;5.12;;;;;;;23.49;66.84;99991.66;1729724;80;21140;-73
2021/06/17 07:01:09;;;;;;;9.95;5.58;;;;;;;23.51;67.05;99979.55;1738766;82;21183;-82
2021/06/17 07:03:37;;;;;;;10.85;6.25;;;;;;;23.54;67.82;99988.66;1746888;80;21121;-71
2021/06/17 07:06:09;;;;;;;11.65;6.17;;;;;;;23.60;67.94;99999.05;1727485;82;21196;-72
2021/06/17 07:08:36;;;;;;;12.28;6.33;;;;;;;23.66;68.83;100001.86;1742027;80;21165;-81
2021/06/17 07:11:05;;;;;;;15.03;6.25;;;;;;;23.71;67.74;100005.27;1733394;82;21175;-75
2021/06/17 07:13:35;;;;;;;10.55;6.33;;;;;;;23.75;68.30;100017.42;1733814;80;21198;-76
2021/06/17 07:16:05;;;;;;;13.03;6.50;;;;;;;23.76;68.08;100021.02;1755877;82;21192;-83
2021/06/17 07:18:33;;;;;;;10.50;6.08;;;;;;;23.75;68.13;100024.41;1716949;80;21117;-76
2021/06/17 07:21:01;;;;;;;12.00;5.95;;;;;;;23.76;68.88;100026.60;1738673;82;21471;-81
2021/06/17 07:23:32;;;;;;;9.23;6.50;;;;;;;23.77;69.77;100030.47;1713206;80;21123;-77
2021/06/17 07:25:59;;;;;;;10.15;6.17;;;;;;;23.79;69.51;100024.53;1740691;82;21226;-79
2021/06/17 07:28:28;;;;;;;10.30;6.70;;;;;;;23.78;69.52;100024.31;1724413;80;21140;-84
2021/06/17 07:30:57;;;;;;;11.18;7.10;;;;;;;23.78;70.21;100018.72;1744778;82;21258;-84
2021/06/17 07:33:28;;;;;;;10.03;6.67;;;;;;;23.82;69.67;100015.47;1747876;80;21161;-81
2021/06/17 07:35:56;;;;;;;10.08;6.05;;;;;;;23.88;68.77;100019.09;1721835;80;21584;-82
2021/06/17 07:38:24;;;;;;;13.38;7.20;;;;;;;23.96;68.45;100012.61;1742667;80;21782;-78
2021/06/17 07:40:52;;;;;;;15.30;7.20;;;;;;;24.04;68.31;100019.28;1726068;80;21120;-84
2021/06/17 07:43:20;;;;;;;9.78;6.35;;;;;;;24.11;67.33;100006.98;1720002;83;21184;-81
2021/06/17 07:45:49;;;;;;;11.38;6.12;;;;;;;24.20;67.34;99997.12;1699763;83;21616;-83
2021/06/17 07:48:17;;;;;;;14.50;6.10;;;;;;;24.32;65.88;99980.36;1705400;83;21176;-79
2021/06/17 07:50:45;;;;;;;10.55;5.60;;;;;;;24.44;65.96;99979.80;1700663;83;21195;-82
2021/06/17 07:53:13;;;;;;;9.78;6.28;;;;;;;24.57;65.48;99982.03;1718934;83;21203;-77
2021/06/17 07:55:42;;;;;;;11.28;5.70;;;;;;;24.66;64.47;99967.94;1703835;83;21284;-78
2021/06/17 07:58:11;;;;;;;9.38;5.55;;;;;;;24.73;64.53;99980.77;1710510;83;21180;-75
2021/06/17 08:00:39;;;;;;;9.30;5.62;;;;;;;24.77;63.47;99980.32;1708736;83;21407;-80
2021/06/17 08:03:09;;;;;;;11.10;5.80;;;;;;;24.79;63.98;99972.41;1701858;83;21208;-80
2021/06/17 08:05:37;;;;;;;8.75;5.50;;;;;;;24.79;63.98;99978.84;1700788;83;21327;-74
2021/06/17 08:08:07;;;;;;;12.03;5.95;;;;;;;24.80;63.29;99975.42;1719344;81;21164;-76
2021/06/17 08:10:35;;;;;;;9.65;5.72;;;;;;;24.84;63.81;99967.41;1708661;83;21338;-77
2021/06/17 08:13:05;;;;;;;12.98;5.80;;;;;;;24.92;63.26;99970.64;1711092;83;21152;-74
2021/06/17 08:15:32;;;;;;;11.03;5.70;;;;;;;25.02;63.62;99974.98;1705766;83;21712;-83
2021/06/17 08:18:02;;;;;;;7.60;5.30;;;;;;;25.08;62.66;99977.75;1701902;83;21656;-80
2021/06/17 08:20:30;;;;;;;;;;;;;;;25.13;62.15;99976.11;1709883;83;21311;-79
2021/06/17 08:22:58;;;;;;;8.30;5.08;;;;;;;25.20;63.31;99972.13;1711111;83;20203;-78
2021/06/17 08:25:25;;;;;;;12.43;5.40;;;;;;;25.26;63.65;99980.53;1716528;83;21307;-81
2021/06/17 08:27:53;;;;;;;9.00;5.90;;;;;;;25.35;63.28;99994.42;1699450;83;21681;-77
2021/06/17 08:30:22;;;;;;;7.55;5.62;;;;;;;25.42;62.60;99999.66;1700809;83;21701;-79
2021/06/17 08:32:50;;;;;;;8.70;5.42;;;;;;;25.51;62.87;100003.75;1717326;81;21291;-75
2021/06/17 08:35:18;;;;;;;8.90;5.15;;;;;;;25.63;61.83;100012.94;1713613;83;21701;-81
2021/06/17 08:37:45;;;;;;;7.60;5.17;;;;;;;25.70;60.78;100001.93;1719860;81;21599;-76
2021/06/17 08:40:13;;;;;;;9.98;5.25;;;;;;;25.71;61.97;99999.38;1714023;83;21232;-81
2021/06/17 08:42:42;;;;;;;7.80;5.15;;;;;;;25.73;61.31;100006.02;1742097;80;21175;-82
2021/06/17 08:45:12;;;;;;;10.13;5.55;;;;;;;25.70;60.02;100013.14;1772425;80;21148;-80
2021/06/17 08:47:40;;;;;;;8.60;4.95;;;;;;;25.68;60.82;100021.67;1701544;83;21575;-80
2021/06/17 08:50:11;;;;;;;9.45;7.03;;;;;;;25.70;60.75;100009.55;1755142;80;21246;-81
2021/06/17 08:52:40;;;;;;;9.68;5.62;;;;;;;25.82;60.10;99996.30;1744640;82;21156;-81
2021/06/17 08:55:25;;;;;;;9.28;5.83;;;;;;;25.93;59.96;99988.20;1753251;80;21520;-82
2021/06/17 08:57:54;;;;;;;11.10;5.35;;;;;;;26.00;59.98;99969.34;1747825;81;21691;-83
2021/06/17 09:00:29;;;;;;;8.98;5.33;;;;;;;26.05;59.86;99960.09;1739003;80;21217;-82
2021/06/17 09:03:06;;;;;;;19.27;7.25;;;;;;;26.14;59.49;99954.33;1740210;82;21596;-82
2021/06/17 09:05:42;;;;;;;11.50;5.10;;;;;;;26.20;58.94;99961.32;1727621;80;21165;-80
2021/06/17 09:08:16;;;;;;;7.55;5.35;;;;;;;26.28;58.39;99958.94;1694702;83;21172;-80
2021/06/17 09:10:44;;;;;;;9.33;5.28;;;;;;;26.30;58.50;99969.21;1713040;82;21183;-84
2021/06/17 09:13:12;;;;;;;13.03;5.60;;;;;;;26.29;58.01;99954.36;1725443;82;21145;-86
2021/06/17 09:15:51;;;;;;;8.13;5.37;;;;;;;26.34;58.26;99962.51;1740517;80;21156;-83
2021/06/17 09:18:34;;;;;;;10.35;5.22;;;;;;;26.37;55.66;99951.15;1753652;82;21204;-84
2021/06/17 09:21:06;;;;;;;10.30;5.58;;;;;;;26.36;54.96;99953.13;1747402;80;21580;-77
2021/06/17 09:23:41;;;;;;;9.23;5.55;;;;;;;26.36;57.73;99964.97;1747392;82;21153;-83
2021/06/17 09:26:12;;;;;;;10.15;5.70;;;;;;;26.30;58.66;99959.39;1727723;82;21827;-77
2021/06/17 09:29:01;;;;;;;8.60;5.20;;;;;;;26.22;58.50;99954.75;1739500;82;21223;-83
2021/06/17 09:31:34;;;;;;;;;;;;;;;26.19;58.61;99961.08;1728712;80;21191;-84
2021/06/17 09:34:05;;;;;;;12.03;5.35;;;;;;;26.17;58.49;99963.44;1737160;82;20175;-79
2021/06/17 09:36:35;;;;;;;8.78;5.30;;;;;;;26.17;58.12;99966.24;1743289;80;21185;-84
2021/06/17 09:39:18;;;;;;;9.73;5.78;;;;;;;26.20;58.35;99961.32;1755369;82;21168;-76
2021/06/17 09:41:54;;;;;;;8.00;5.08;;;;;;;26.24;57.79;99966.43;1731985;82;21177;-84
2021/06/17 09:44:33;;;;;;;8.08;5.40;;;;;;;26.25;57.81;99978.71;1706761;80;21283;-75
2021/06/17 09:47:36;;;;;;;8.48;5.65;;;;;;;26.24;58.40;99972.04;1730352;80;21171;-82
2021/06/17 09:49:46;;;;;;;16.77;5.45;;;;;;;26.19;58.23;99974.53;1730398;80;21168;-77
2021/06/17 09:52:18;;;;;;;11.00;5.40;;;;;;;26.19;58.49;99971.72;1745990;80;21256;-76
2021/06/17 09:54:47;;;;;;;9.48;5.42;;;;;;;26.21;59.35;99975.59;1742300;80;21615;-77
2021/06/17 09:57:19;;;;;;;14.30;6.08;;;;;;;26.22;57.88;99972.41;1741905;80;21609;-78
2021/06/17 09:59:53;;;;;;;14.15;6.15;;;;;;;26.25;58.51;99967.48;1725699;83;21152;-78
2021/06/17 10:02:28;;;;;;;8.63;5.62;;;;;;;26.37;58.09;99969.39;1729951;80;21176;-81
2021/06/17 10:05:21;;;;;;;11.10;5.25;;;;;;;26.43;58.06;99982.00;1753543;82;21145;-79
2021/06/17 10:07:50;;;;;;;7.75;5.08;;;;;;;26.46;57.12;99972.86;1745579;80;21192;-79
2021/06/17 10:10:22;;;;;;;9.90;5.22;;;;;;;26.43;56.33;99969.36;1717227;80;21186;-78
2021/06/17 10:12:49;;;;;;;7.92;5.30;;;;;;;26.38;56.37;99973.26;1698257;83;21199;-80
2021/06/17 10:15:17;;;;;;;11.12;4.92;;;;;;;26.31;56.80;99980.67;1700606;84;21142;-75
2021/06/17 10:17:46;;;;;;;14.50;5.28;;;;;;;26.31;56.63;99972.25;1702677;83;21181;-77
2021/06/17 10:20:14;;;;;;;12.78;5.15;;;;;;;26.37;56.92;99967.98;1755710;82;21161;-82
2021/06/17 10:22:43;;;;;;;;;;;;;;;26.51;57.29;99971.77;1758633;81;21149;-84
2021/06/17 10:25:22;;;;;;;9.98;4.85;;;;;;;26.65;56.59;99968.73;1754742;80;20207;-84
2021/06/17 10:27:51;;;;;;;9.60;4.80;;;;;;;26.77;56.74;99971.47;1747681;81;21148;-83
2021/06/17 10:30:24;;;;;;;8.05;4.92;;;;;;;26.76;56.31;99972.66;1727034;80;21148;-81
2021/06/17 10:32:57;;;;;;;9.23;4.60;;;;;;;26.75;55.91;99976.61;1735429;80;21109;-84
2021/06/17 10:35:29;;;;;;;10.18;4.53;;;;;;;26.79;56.64;99965.50;1732311;80;21605;-80
2021/06/17 10:38:04;;;;;;;11.43;4.75;;;;;;;26.83;55.17;99970.02;1725627;82;21182;-86
2021/06/17 10:40:35;;;;;;;11.30;4.90;;;;;;;26.80;55.69;99957.28;1741956;80;21529;-79
2021/06/17 10:43:06;;;;;;;9.08;5.25;;;;;;;26.82;56.13;99956.33;1742276;81;21508;-82
2021/06/17 10:45:45;;;;;;;8.48;5.10;;;;;;;26.87;56.61;99959.68;1730431;80;21131;-80
2021/06/17 10:48:24;;;;;;;12.07;5.17;;;;;;;26.97;56.42;99964.73;1739401;82;21608;-84
2021/06/17 10:50:56;;;;;;;9.90;4.90;;;;;;;27.07;57.50;99981.03;1738575;80;21161;-83
2021/06/17 10:53:39;;;;;;;7.65;4.90;;;;;;;27.16;55.68;99982.25;1746709;80;21278;-85
2021/06/17 10:56:21;;;;;;;7.55;5.17;;;;;;;27.17;55.39;99970.42;1745006;80;21184;-86
2021/06/17 10:58:55;;;;;;;12.35;5.03;;;;;;;27.18;55.10;99974.85;1778154;80;21956;-87
2021/06/17 11:01:42;;;;;;;11.35;5.53;;;;;;;27.16;54.96;99968.78;1713413;83;21587;-88
2021/06/17 11:04:20;;;;;;;11.93;5.15;;;;;;;27.09;55.05;99973.66;1700920;83;21167;-80
2021/06/17 11:07:09;;;;;;;8.63;4.42;;;;;;;27.01;54.72;99978.30;1724872;80;21198;-81
2021/06/17 11:09:46;;;;;;;9.68;5.08;;;;;;;26.98;55.44;99979.02;1735449;80;21358;-83
2021/06/17 11:12:35;;;;;;;9.18;5.25;;;;;;;26.96;55.01;99980.56;1746017;80;22029;-82
2021/06/17 11:15:08;;;;;;;8.90;4.62;;;;;;;26.88;55.63;99986.59;1745529;80;21144;-85
2021/06/17 11:17:41;;;;;;;7.30;4.10;;;;;;;26.87;56.87;99985.54;1752939;80;21285;-84
2021/06/17 11:20:18;;;;;;;8.80;4.65;;;;;;;26.90;56.84;99985.64;1751605;82;21243;-83
2021/06/17 11:22:57;;;;;;;9.35;4.53;;;;;;;26.93;55.03;99987.73;1744900;80;21709;-79
2021/06/17 11:25:24;;;;;;;10.13;4.40;;;;;;;26.92;54.49;99991.70;1713747;82;21120;-83
2021/06/17 11:28:04;;;;;;;9.95;4.53;;;;;;;26.91;54.95;99994.30;1711407;82;21121;-81
2021/06/17 11:30:50;;;;;;;15.23;4.70;;;;;;;26.93;54.00;99985.50;1732799;80;21152;-83
2021/06/17 11:33:22;;;;;;;20.43;4.92;;;;;;;26.95;55.65;99995.20;1730561;80;21186;-83
2021/06/17 11:36:02;;;;;;;12.88;4.60;;;;;;;27.01;53.84;99995.16;1747624;80;21140;-82
2021/06/17 11:38:33;;;;;;;7.70;4.62;;;;;;;26.99;53.50;99996.08;1748459;80;21164;-79
2021/06/17 11:41:19;;;;;;;8.48;4.67;;;;;;;27.02;53.27;99995.95;1728219;82;21456;-79
2021/06/17 11:43:53;;;;;;;7.45;4.33;;;;;;;27.13;54.22;99994.80;1725929;80;21133;-78
2021/06/17 11:46:27;;;;;;;9.15;4.47;;;;;;;27.15;53.22;99991.06;1724297;83;21145;-79
2021/06/17 11:49:00;;;;;;;10.03;4.40;;;;;;;27.10;52.36;100001.97;1756110;80;21294;-81
2021/06/17 11:51:46;;;;;;;8.63;4.72;;;;;;;27.09;53.56;100005.97;1768752;80;21167;-82
2021/06/17 11:54:22;;;;;;;10.53;4.30;;;;;;;27.16;54.20;100008.12;1732086;80;21528;-81
2021/06/17 11:56:52;;;;;;;9.23;4.45;;;;;;;27.23;53.90;99998.45;1734057;82;21312;-77